Time;durP1;ratioP1;P1;durP2;ratioP2;P2;SDS_P1;SDS_P2;PMS_P1;PMS_P2;Temp;Humidity;BMP_temperature;BMP_pressure;BME280_temperature;BME280_humidity;BME280_pressure;Samples;Min_cycle;Max_cycle;Signal;HPM_P1;HPM_P2
2022/10/01 00:00:33;;;;;;;17.52;11.03;;;;;;;14.47;100.00;100813.54;1744088;81;20989;-39
2022/10/01 00:03:00;;;;;;;22.32;11.38;;;;;;;14.42;100.00;100813.70;1757267;81;20936;-39
2022/10/01 00:05:27;;;;;;;17.35;12.10;;;;;;;14.42;100.00;100814.13;1740553;81;20913;-39
2022/10/01 00:07:54;;;;;;;13.60;11.43;;;;;;;14.41;100.00;100817.20;1757541;81;21010;-39
2022/10/01 00:10:22;;;;;;;17.25;11.25;;;;;;;14.43;100.00;100815.83;1757717;81;21806;-39
2022/10/01 00:12:49;;;;;;;20.60;10.82;;;;;;;14.43;100.00;100815.83;1740494;81;20995;-40
2022/10/01 00:17:08;;;;;;;17.70;11.75;;;;;;;14.41;100.00;100811.13;1798279;79;22594;-39
2022/10/01 00:19:34;;;;;;;18.15;11.33;;;;;;;14.35;100.00;100811.71;1757993;81;20983;-39
2022/10/01 00:22:02;;;;;;;22.55;11.08;;;;;;;14.34;100.00;100804.80;1755746;81;21151;-39
2022/10/01 00:24:29;;;;;;;18.00;11.55;;;;;;;14.33;100.00;100808.30;1749786;81;20900;-39
2022/10/01 00:26:56;;;;;;;21.10;12.05;;;;;;;14.32;100.00;100807.89;1749686;82;20981;-39
2022/10/01 00:29:23;;;;;;;17.07;11.12;;;;;;;14.27;100.00;100808.91;1749700;82;20929;-39
2022/10/01 00:31:50;;;;;;;21.05;12.10;;;;;;;14.25;100.00;100815.45;1749793;82;21007;-39
2022/10/01 00:34:17;;;;;;;23.85;12.15;;;;;;;14.24;100.00;100822.86;1749934;81;22080;-39
2022/10/01 00:36:43;;;;;;;19.40;12.37;;;;;;;14.22;100.00;100816.84;1749644;81;20999;-39
2022/10/01 00:39:11;;;;;;;15.43;10.98;;;;;;;14.21;100.00;100820.34;1749804;81;20932;-39
2022/10/01 00:41:38;;;;;;;17.48;11.30;;;;;;;14.15;100.00;100816.62;1720340;82;20900;-39
2022/10/01 00:44:36;;;;;;;14.75;11.97;;;;;;;14.11;100.00;100816.30;1749886;82;20924;-39
2022/10/01 00:47:17;;;;;;;20.40;11.75;;;;;;;14.06;100.00;100817.72;1717097;82;21217;-39
2022/10/01 00:49:46;;;;;;;20.27;11.55;;;;;;;14.02;100.00;100815.67;1749876;82;21514;-39
2022/10/01 00:52:21;;;;;;;16.27;11.40;;;;;;;14.00;100.00;100812.22;1749593;82;20896;-39
2022/10/01 00:54:51;;;;;;;;;;;;;;;13.97;100.00;100817.52;1752248;81;20902;-39
2022/10/01 00:57:20;;;;;;;16.30;11.70;;;;;;;13.92;100.00;100810.28;1750061;81;20087;-40
2022/10/01 00:59:48;;;;;;;17.73;11.83;;;;;;;13.88;100.00;100808.20;1749675;82;21236;-39
2022/10/01 01:02:16;;;;;;;18.45;11.22;;;;;;;13.85;100.00;100808.75;1749873;82;20920;-39
2022/10/01 01:04:43;;;;;;;13.88;11.25;;;;;;;13.83;100.00;100804.04;1749756;82;20975;-39
2022/10/01 01:07:10;;;;;;;20.23;11.03;;;;;;;13.81;100.00;100808.43;1720449;82;20971;-39
2022/10/01 01:09:42;;;;;;;19.62;11.05;;;;;;;13.74;100.00;100807.27;1749691;82;20984;-39
2022/10/01 01:12:38;;;;;;;14.90;11.10;;;;;;;13.69;100.00;100804.40;1749763;82;21031;-40
2022/10/01 01:15:20;;;;;;;18.65;10.98;;;;;;;13.61;100.00;100812.39;1749763;81;20968;-39
2022/10/01 01:18:22;;;;;;;18.57;11.90;;;;;;;13.52;100.00;100811.34;1750534;82;20964;-38
2022/10/01 01:21:06;;;;;;;20.40;11.85;;;;;;;13.45;100.00;100813.23;1750546;81;20908;-40
2022/10/01 01:24:07;;;;;;;16.15;11.93;;;;;;;13.40;100.00;100812.00;1744443;82;20913;-39
2022/10/01 01:27:15;;;;;;;19.23;13.10;;;;;;;13.37;100.00;100810.78;1750388;80;21171;-39
2022/10/01 01:29:53;;;;;;;20.62;12.03;;;;;;;13.30;100.00;100807.93;1750037;81;20932;-40
2022/10/01 01:32:53;;;;;;;21.33;12.50;;;;;;;13.23;100.00;100801.55;1750018;82;20972;-39
2022/10/01 01:35:31;;;;;;;16.50;12.78;;;;;;;13.15;100.00;100800.89;1748822;82;20979;-38
2022/10/01 01:38:09;;;;;;;16.73;12.47;;;;;;;13.09;100.00;100795.84;1722388;82;21419;-39
2022/10/01 01:40:36;;;;;;;18.90;11.53;;;;;;;13.08;100.00;100791.54;1750502;82;21186;-39
2022/10/01 01:43:05;;;;;;;13.55;11.35;;;;;;;13.04;100.00;100796.41;1749869;82;20972;-39
2022/10/01 01:45:32;;;;;;;21.25;12.03;;;;;;;12.93;100.00;100796.65;1750203;81;20971;-39
2022/10/01 01:48:01;;;;;;;15.32;11.35;;;;;;;12.85;100.00;100794.22;1722345;82;21048;-38
2022/10/01 01:50:29;;;;;;;18.80;10.65;;;;;;;12.79;100.00;100791.77;1722476;82;21485;-39
2022/10/01 01:52:56;;;;;;;16.42;11.33;;;;;;;12.70;100.00;100794.13;1749878;82;21415;-39
2022/10/01 01:55:23;;;;;;;17.57;12.05;;;;;;;12.63;100.00;100794.69;1675490;82;21502;-39
2022/10/01 01:57:50;;;;;;;15.13;11.75;;;;;;;12.56;100.00;100797.02;1722583;82;20937;-38
2022/10/01 02:00:17;;;;;;;14.60;11.75;;;;;;;12.50;100.00;100794.52;1749844;82;21027;-38
2022/10/01 02:02:48;;;;;;;19.20;10.72;;;;;;;12.43;100.00;100802.91;1750039;82;20947;-39
2022/10/01 02:05:18;;;;;;;16.23;12.03;;;;;;;12.38;100.00;100800.86;1749883;82;21245;-39
2022/10/01 02:07:55;;;;;;;20.10;11.25;;;;;;;12.31;100.00;100794.05;1749732;81;20925;-39
2022/10/01 02:10:52;;;;;;;19.90;11.57;;;;;;;12.26;100.00;100801.95;1723582;82;21391;-39
2022/10/01 02:13:49;;;;;;;20.43;11.95;;;;;;;12.19;100.00;100802.94;1749861;82;20976;-40
2022/10/01 02:16:44;;;;;;;14.93;12.90;;;;;;;12.11;100.00;100807.44;1744554;81;20945;-38
2022/10/01 02:19:25;;;;;;;16.48;12.63;;;;;;;12.07;100.00;100811.39;1735754;82;21463;-40
2022/10/01 02:22:03;;;;;;;20.70;11.95;;;;;;;12.02;100.00;100813.65;1735821;82;20925;-40
2022/10/01 02:24:51;;;;;;;16.73;12.13;;;;;;;11.95;100.00;100823.25;1735316;82;20977;-39
2022/10/01 02:27:31;;;;;;;17.12;11.22;;;;;;;11.90;100.00;100823.78;1735822;82;20922;-38
2022/10/01 02:30:03;;;;;;;15.18;11.80;;;;;;;11.86;100.00;100826.02;1735261;82;20945;-38
2022/10/01 02:32:29;;;;;;;19.30;10.98;;;;;;;11.83;100.00;100825.62;1736000;82;21248;-39
2022/10/01 02:34:57;;;;;;;27.25;11.12;;;;;;;11.81;100.00;100835.17;1735846;82;20917;-39
2022/10/01 02:37:25;;;;;;;19.32;12.50;;;;;;;11.76;100.00;100826.62;1736029;82;20980;-39
2022/10/01 02:39:53;;;;;;;17.42;11.33;;;;;;;11.73;100.00;100824.92;1735900;82;21478;-39
2022/10/01 02:42:21;;;;;;;21.68;13.50;;;;;;;11.72;100.00;100828.39;1736178;82;21518;-38
2022/10/01 02:44:48;;;;;;;27.85;13.38;;;;;;;11.82;100.00;100820.02;1735972;82;21146;-39
2022/10/01 02:47:22;;;;;;;34.50;14.60;;;;;;;12.04;100.00;100819.23;1714961;82;20988;-39
2022/10/01 02:49:49;;;;;;;23.18;14.47;;;;;;;12.24;100.00;100820.57;1735949;82;20917;-39
2022/10/01 02:52:36;;;;;;;38.88;15.43;;;;;;;12.31;100.00;100814.39;1735795;82;20945;-39
2022/10/01 02:55:10;;;;;;;20.00;10.95;;;;;;;12.32;100.00;100817.83;1731513;82;20889;-40
2022/10/01 02:57:38;;;;;;;12.30;9.75;;;;;;;12.32;100.00;100816.11;1736437;81;21225;-40
2022/10/01 03:00:12;;;;;;;13.78;10.68;;;;;;;12.23;100.00;100816.27;1735741;82;20922;-39
2022/10/01 03:02:40;;;;;;;16.07;11.25;;;;;;;12.11;100.00;100817.36;1692663;82;21407;-40
2022/10/01 03:05:08;;;;;;;17.75;10.70;;;;;;;12.05;100.00;100818.34;1735823;82;20890;-40
2022/10/01 03:07:35;;;;;;;17.67;12.13;;;;;;;12.01;100.00;100821.89;1715009;82;20972;-38
2022/10/01 03:10:04;;;;;;;18.45;12.78;;;;;;;12.00;100.00;100814.09;1735927;82;21300;-39
2022/10/01 03:12:32;;;;;;;17.82;12.55;;;;;;;12.02;100.00;100814.52;1735838;82;20885;-38
2022/10/01 03:14:58;;;;;;;15.65;11.78;;;;;;;12.03;100.00;100807.15;1715061;82;21526;-37
2022/10/01 03:17:26;;;;;;;20.65;12.70;;;;;;;12.03;100.00;100812.34;1735711;81;20937;-38
2022/10/01 03:19:54;;;;;;;18.65;12.25;;;;;;;12.01;100.00;100810.64;1735841;82;20925;-38
2022/10/01 03:22:21;;;;;;;21.42;12.73;;;;;;;12.01;100.00;100805.03;1735904;82;21192;-38
2022/10/01 03:24:50;;;;;;;16.07;9.60;;;;;;;12.04;100.00;100802.38;1735748;82;20889;-39
2022/10/01 03:27:18;;;;;;;15.48;10.90;;;;;;;12.05;100.00;100807.97;1735822;82;20968;-38
2022/10/01 03:29:45;;;;;;;25.30;10.08;;;;;;;12.00;100.00;100814.96;1736180;82;21012;-39
2022/10/01 03:32:12;;;;;;;14.45;10.30;;;;;;;11.94;100.00;100815.05;1714953;82;20992;-38
2022/10/01 03:34:39;;;;;;;13.90;10.78;;;;;;;11.93;100.00;100814.22;1735862;82;22118;-39
2022/10/01 03:37:06;;;;;;;16.93;10.43;;;;;;;12.00;100.00;100819.28;1735847;82;20913;-38
2022/10/01 03:39:33;;;;;;;11.97;9.65;;;;;;;11.99;100.00;100812.38;1735803;82;20959;-39
2022/10/01 03:42:00;;;;;;;16.65;10.38;;;;;;;11.99;100.00;100814.52;1739570;82;20984;-39
2022/10/01 03:44:27;;;;;;;13.78;10.15;;;;;;;11.92;100.00;100820.71;1735954;82;20877;-39
2022/10/01 03:46:54;;;;;;;15.78;10.25;;;;;;;11.89;100.00;100825.53;1715140;81;21289;-39
2022/10/01 03:49:21;;;;;;;13.25;10.43;;;;;;;11.88;100.00;100826.84;1735756;82;20850;-38
2022/10/01 03:51:49;;;;;;;17.50;10.28;;;;;;;11.88;100.00;100832.03;1735922;82;20968;-39
2022/10/01 03:54:16;;;;;;;14.85;10.20;;;;;;;11.88;100.00;100836.80;1735866;82;20877;-39
2022/10/01 03:56:43;;;;;;;21.75;10.90;;;;;;;11.88;100.00;100824.25;1715081;82;21458;-38
2022/10/01 03:59:10;;;;;;;19.20;10.82;;;;;;;12.00;100.00;100820.58;1735922;82;21138;-38
2022/10/01 04:01:38;;;;;;;14.95;10.32;;;;;;;12.11;100.00;100823.00;1735733;82;20968;-39
2022/10/01 04:04:05;;;;;;;17.98;9.60;;;;;;;12.23;100.00;100823.21;1735787;82;20926;-39
2022/10/01 04:06:32;;;;;;;18.37;11.03;;;;;;;12.30;100.00;100824.37;1735874;82;21479;-39
2022/10/01 04:08:59;;;;;;;20.05;9.60;;;;;;;12.35;100.00;100821.23;1736073;82;20953;-39
2022/10/01 04:11:26;;;;;;;15.90;9.40;;;;;;;12.44;100.00;100824.52;1735821;82;22172;-39
2022/10/01 04:13:52;;;;;;;14.87;9.40;;;;;;;12.55;100.00;100824.30;1714924;82;20909;-38
2022/10/01 04:16:19;;;;;;;17.85;8.88;;;;;;;12.61;100.00;100824.16;1735924;81;21574;-39
2022/10/01 04:18:46;;;;;;;12.65;8.53;;;;;;;12.66;100.00;100824.95;1735870;82;20937;-38
2022/10/01 04:21:14;;;;;;;20.57;9.35;;;;;;;12.71;100.00;100827.42;1739535;82;21031;-38
2022/10/01 04:23:41;;;;;;;10.88;8.75;;;;;;;12.76;100.00;100823.01;1735885;82;21037;-39
2022/10/01 04:26:07;;;;;;;16.50;9.45;;;;;;;12.81;100.00;100817.27;1735829;82;21527;-39
2022/10/01 04:28:35;;;;;;;18.48;9.50;;;;;;;12.91;100.00;100820.05;1735947;81;21407;-39
2022/10/01 04:33:47;;;;;;;13.25;7.72;;;;;;;13.10;100.00;100815.75;1735996;82;21001;-39
2022/10/01 04:36:14;;;;;;;16.60;7.65;;;;;;;13.20;100.00;100821.59;1735866;82;21184;-39
2022/10/01 04:38:41;;;;;;;10.58;6.70;;;;;;;13.29;100.00;100823.95;1735926;82;21509;-39
2022/10/01 04:41:08;;;;;;;15.30;6.53;;;;;;;13.41;100.00;100830.61;1735727;82;20913;-39
2022/10/01 04:43:36;;;;;;;8.95;7.00;;;;;;;13.54;100.00;100829.05;1739455;81;20932;-39
2022/10/01 04:46:02;;;;;;;11.68;6.83;;;;;;;13.66;100.00;100835.23;1735799;82;21010;-39
2022/10/01 04:48:29;;;;;;;14.33;6.47;;;;;;;13.74;100.00;100825.47;1715035;82;21141;-39
2022/10/01 04:50:56;;;;;;;9.13;7.08;;;;;;;13.84;100.00;100825.25;1735788;82;20969;-39
2022/10/01 04:53:23;;;;;;;10.53;6.75;;;;;;;13.91;100.00;100839.80;1735814;82;20921;-39
2022/10/01 04:55:49;;;;;;;12.85;6.90;;;;;;;13.98;100.00;100834.84;1735755;82;21074;-40
2022/10/01 04:58:17;;;;;;;15.28;6.92;;;;;;;14.06;100.00;100838.11;1735839;81;21004;-39
2022/10/01 05:00:44;;;;;;;16.70;6.35;;;;;;;14.15;100.00;100838.31;1735913;82;22120;-39
2022/10/01 05:03:10;;;;;;;14.13;7.10;;;;;;;14.22;100.00;100833.34;1735733;82;20918;-39
2022/10/01 05:05:39;;;;;;;13.43;6.92;;;;;;;14.30;100.00;100835.73;1739535;82;20897;-39
2022/10/01 05:08:06;;;;;;;8.80;6.15;;;;;;;14.36;100.00;100831.64;1735899;82;20981;-40
2022/10/01 05:10:34;;;;;;;9.10;6.03;;;;;;;14.42;100.00;100828.45;1736141;82;21526;-40
2022/10/01 05:13:01;;;;;;;16.05;6.72;;;;;;;14.51;100.00;100843.80;1736012;82;21130;-40
2022/10/01 05:15:28;;;;;;;10.40;6.50;;;;;;;14.57;100.00;100835.84;1735939;82;20961;-39
2022/10/01 05:17:55;;;;;;;10.15;6.78;;;;;;;14.64;100.00;100837.36;1715113;82;20917;-39
2022/10/01 05:20:25;;;;;;;12.45;6.17;;;;;;;14.72;100.00;100821.97;1736080;82;20925;-39
2022/10/01 05:22:53;;;;;;;12.65;6.40;;;;;;;14.80;100.00;100822.15;1735842;82;20925;-39
2022/10/01 05:25:19;;;;;;;11.97;6.12;;;;;;;14.89;100.00;100825.36;1735754;82;21413;-40
2022/10/01 05:27:47;;;;;;;9.85;6.03;;;;;;;14.96;100.00;100819.52;1735904;82;21404;-40
2022/10/01 05:30:22;;;;;;;12.70;6.78;;;;;;;15.02;100.00;100820.63;1736082;82;21031;-39
2022/10/01 05:32:49;;;;;;;15.95;6.90;;;;;;;15.07;100.00;100822.66;1736125;82;21474;-40
2022/10/01 05:35:17;;;;;;;11.53;7.55;;;;;;;15.14;100.00;100820.25;1734039;82;20945;-39
2022/10/01 05:37:43;;;;;;;13.40;7.65;;;;;;;15.22;100.00;100816.94;1735958;82;21295;-39
2022/10/01 05:40:10;;;;;;;14.63;7.72;;;;;;;15.32;100.00;100820.11;1735882;82;21007;-39
2022/10/01 05:42:37;;;;;;;17.87;8.98;;;;;;;15.41;100.00;100820.27;1735868;81;21498;-40
2022/10/01 05:45:06;;;;;;;15.50;7.97;;;;;;;15.49;100.00;100816.94;1735959;82;20910;-40
2022/10/01 05:47:33;;;;;;;12.95;8.55;;;;;;;15.58;100.00;100814.95;1715030;82;21466;-40
2022/10/01 05:50:01;;;;;;;13.30;7.62;;;;;;;15.64;100.00;100813.42;1735898;82;21265;-40
2022/10/01 05:52:28;;;;;;;17.45;7.83;;;;;;;15.70;100.00;100817.13;1735954;82;20984;-40
2022/10/01 05:54:54;;;;;;;13.15;7.67;;;;;;;15.72;100.00;100820.53;1735997;82;21530;-40
2022/10/01 05:57:21;;;;;;;16.10;7.92;;;;;;;15.73;100.00;100818.79;1735869;82;20929;-40
2022/10/01 05:59:47;;;;;;;15.88;8.10;;;;;;;15.76;100.00;100818.68;1735955;82;20873;-40
2022/10/01 06:02:15;;;;;;;13.80;7.55;;;;;;;15.78;100.00;100824.23;1739514;81;21791;-40
2022/10/01 06:04:42;;;;;;;16.77;7.30;;;;;;;15.77;100.00;100823.83;1735928;82;20952;-40
2022/10/01 06:07:09;;;;;;;9.35;6.70;;;;;;;15.85;100.00;100833.17;1735854;82;20933;-40
2022/10/01 06:09:36;;;;;;;13.65;7.72;;;;;;;15.91;100.00;100835.59;1735944;81;20957;-40
2022/10/01 06:12:09;;;;;;;8.20;6.80;;;;;;;15.94;100.00;100837.66;1735919;82;20921;-39
2022/10/01 06:14:34;;;;;;;14.98;6.97;;;;;;;16.01;100.00;100842.66;1736097;81;21454;-40
2022/10/01 06:17:00;;;;;;;12.33;6.65;;;;;;;16.02;100.00;100836.53;1737766;81;21039;-40
2022/10/01 06:19:28;;;;;;;14.98;6.37;;;;;;;16.00;100.00;100823.52;1749876;82;20860;-40
2022/10/01 06:21:54;;;;;;;12.03;6.37;;;;;;;16.00;100.00;100833.13;1749743;82;20992;-40
2022/10/01 06:24:21;;;;;;;12.45;6.37;;;;;;;16.04;100.00;100838.19;1749782;81;21462;-40
2022/10/01 06:26:48;;;;;;;10.82;6.25;;;;;;;16.11;100.00;100841.41;1749957;81;21040;-40
2022/10/01 06:29:14;;;;;;;12.90;6.30;;;;;;;16.15;100.00;100842.17;1722358;82;21018;-40
2022/10/01 06:31:41;;;;;;;14.25;5.92;;;;;;;16.27;100.00;100849.55;1750005;81;20960;-40
2022/10/01 06:34:08;;;;;;;15.45;6.45;;;;;;;16.37;100.00;100847.02;1749964;82;21466;-39
2022/10/01 06:36:34;;;;;;;11.83;5.80;;;;;;;16.50;100.00;100852.64;1749899;82;20933;-40
2022/10/01 06:39:03;;;;;;;11.55;6.05;;;;;;;16.64;100.00;100856.48;1722807;82;20905;-40
2022/10/01 06:41:30;;;;;;;11.30;5.33;;;;;;;16.77;100.00;100860.80;1749781;81;20968;-40
2022/10/01 06:43:56;;;;;;;16.02;5.55;;;;;;;16.90;100.00;100864.66;1750161;82;21517;-40
2022/10/01 06:46:23;;;;;;;14.30;5.87;;;;;;;17.01;100.00;100853.82;1749921;82;20976;-40
2022/10/01 06:48:50;;;;;;;13.60;5.85;;;;;;;17.08;100.00;100851.34;1749746;81;20917;-40
2022/10/01 06:52:47;;;;;;;9.58;4.83;;;;;;;17.16;100.00;100860.20;1749768;81;21003;-40
2022/10/01 06:53:45;;;;;;;10.80;5.22;;;;;;;17.22;100.00;100860.42;1745665;82;21006;-41
2022/10/01 06:56:12;;;;;;;9.58;4.72;;;;;;;17.32;100.00;100856.98;1721887;82;21561;-40
2022/10/01 06:58:39;;;;;;;16.27;5.80;;;;;;;17.41;100.00;100855.73;1749779;82;20893;-40
2022/10/01 07:01:06;;;;;;;6.37;4.87;;;;;;;17.51;100.00;100863.15;1749789;82;20983;-40
2022/10/01 07:03:33;;;;;;;7.92;4.80;;;;;;;17.61;100.00;100861.48;1750012;81;21127;-40
2022/10/01 07:06:02;;;;;;;11.93;5.12;;;;;;;17.69;100.00;100862.47;1749802;82;20983;-40
2022/10/01 07:08:29;;;;;;;9.33;5.17;;;;;;;17.80;100.00;100855.00;1749831;81;20892;-40
2022/10/01 07:11:01;;;;;;;11.38;4.75;;;;;;;17.93;100.00;100857.95;1749735;82;21478;-40
2022/10/01 07:13:28;;;;;;;12.75;5.15;;;;;;;18.00;100.00;100860.69;1749691;82;20838;-40
2022/10/01 07:15:55;;;;;;;7.47;4.50;;;;;;;18.14;100.00;100867.14;1749784;82;21222;-40
2022/10/01 07:18:23;;;;;;;17.62;4.67;;;;;;;18.26;100.00;100866.59;1741610;82;20921;-40
2022/10/01 07:20:50;;;;;;;9.68;4.62;;;;;;;18.40;100.00;100873.00;1735875;82;20913;-40
2022/10/01 07:23:17;;;;;;;8.50;4.92;;;;;;;18.57;100.00;100871.79;1735965;82;20944;-40
2022/10/01 07:25:45;;;;;;;6.67;4.08;;;;;;;18.70;100.00;100869.90;1735742;81;20933;-40
2022/10/01 07:28:16;;;;;;;7.62;4.05;;;;;;;18.78;100.00;100875.19;1735916;82;22013;-40
2022/10/01 07:30:46;;;;;;;7.60;4.78;;;;;;;18.78;100.00;100867.31;1735702;82;20976;-40
2022/10/01 07:33:19;;;;;;;7.45;3.83;;;;;;;18.76;100.00;100863.05;1736047;82;20973;-40
2022/10/01 07:35:46;;;;;;;8.68;4.35;;;;;;;18.73;100.00;100861.89;1735749;82;21066;-40
2022/10/01 07:38:13;;;;;;;16.32;4.85;;;;;;;18.79;100.00;100862.46;1739527;81;20942;-40
2022/10/01 07:40:40;;;;;;;5.53;4.35;;;;;;;18.87;100.00;100857.31;1735794;82;20945;-40
2022/10/01 07:43:07;;;;;;;11.80;4.17;;;;;;;18.95;100.00;100865.20;1735820;82;21420;-40
2022/10/01 07:45:34;;;;;;;7.12;4.15;;;;;;;19.06;100.00;100855.55;1715110;82;20977;-40
2022/10/01 07:48:02;;;;;;;8.00;4.33;;;;;;;19.20;100.00;100856.20;1735778;82;21492;-40
2022/10/01 07:50:29;;;;;;;12.75;3.90;;;;;;;19.29;100.00;100858.84;1735861;82;20933;-40
2022/10/01 07:52:57;;;;;;;7.55;4.60;;;;;;;19.37;100.00;100865.03;1735858;82;21147;-40
2022/10/01 07:55:27;;;;;;;5.60;4.42;;;;;;;19.39;100.00;100854.83;1735857;82;21003;-40
2022/10/01 07:57:56;;;;;;;8.75;4.45;;;;;;;19.46;100.00;100862.42;1735795;82;20976;-40
2022/10/01 08:00:25;;;;;;;8.70;4.37;;;;;;;19.58;100.00;100852.61;1736044;82;20941;-40
2022/10/01 08:02:54;;;;;;;9.95;4.35;;;;;;;19.76;100.00;100853.45;1735819;82;20886;-40
2022/10/01 08:05:25;;;;;;;11.08;4.42;;;;;;;19.97;100.00;100853.31;1735780;82;21287;-40
2022/10/01 08:07:52;;;;;;;8.65;4.60;;;;;;;20.18;100.00;100847.88;1735852;82;21479;-40
2022/10/01 08:10:22;;;;;;;8.00;3.42;;;;;;;20.39;100.00;100842.80;1735859;82;20897;-40
2022/10/01 08:12:49;;;;;;;9.45;4.42;;;;;;;20.59;100.00;100840.87;1735874;82;20893;-40
2022/10/01 08:15:16;;;;;;;10.90;4.53;;;;;;;20.84;100.00;100842.63;1735882;82;20972;-40
2022/10/01 08:17:44;;;;;;;11.48;4.28;;;;;;;20.99;100.00;100839.16;1738204;81;21293;-40
2022/10/01 08:20:12;;;;;;;11.30;4.25;;;;;;;21.18;100.00;100842.03;1749735;82;20954;-40
2022/10/01 08:22:39;;;;;;;9.78;3.62;;;;;;;21.33;100.00;100844.25;1749729;82;20916;-40
2022/10/01 08:25:07;;;;;;;4.87;3.80;;;;;;;21.50;100.00;100854.66;1749788;82;20941;-40
2022/10/01 08:27:35;;;;;;;8.63;3.67;;;;;;;21.67;99.72;100848.43;1749796;82;20960;-40
2022/10/01 08:30:03;;;;;;;6.40;3.80;;;;;;;21.80;97.92;100847.23;1749861;82;21132;-40
2022/10/01 08:32:30;;;;;;;9.85;3.87;;;;;;;22.01;96.31;100848.69;1749758;82;21391;-40
2022/10/01 08:34:58;;;;;;;7.53;3.83;;;;;;;22.17;96.12;100839.38;1749833;82;21335;-40
2022/10/01 08:37:29;;;;;;;7.67;3.67;;;;;;;22.38;94.21;100844.64;1749828;82;20893;-40
2022/10/01 08:39:56;;;;;;;10.75;3.52;;;;;;;22.58;93.51;100830.67;1749871;81;20932;-40
2022/10/01 08:42:41;;;;;;;7.55;3.52;;;;;;;22.67;92.63;100834.52;1750002;82;21145;-40
2022/10/01 08:45:27;;;;;;;8.88;3.87;;;;;;;22.76;91.52;100839.23;1722374;82;21431;-40
2022/10/01 08:48:15;;;;;;;14.50;4.20;;;;;;;22.76;89.83;100844.97;1750012;82;20964;-40
2022/10/01 08:51:16;;;;;;;9.88;3.85;;;;;;;22.71;91.50;100843.10;1749927;81;20901;-40
2022/10/01 08:53:55;;;;;;;11.53;3.55;;;;;;;22.65;90.23;100845.19;1749943;81;20928;-40
2022/10/01 08:56:26;;;;;;;8.40;3.70;;;;;;;22.61;90.68;100843.70;1749887;81;21970;-40
2022/10/01 08:58:58;;;;;;;6.72;3.50;;;;;;;22.62;91.57;100845.39;1750110;81;21350;-40
2022/10/01 09:01:28;;;;;;;7.95;3.90;;;;;;;22.70;91.89;100846.69;1750277;80;20884;-40
2022/10/01 09:03:55;;;;;;;10.28;3.87;;;;;;;22.78;90.37;100853.63;1749852;82;20908;-40
2022/10/01 09:06:25;;;;;;;10.05;3.58;;;;;;;22.85;90.10;100848.33;1749912;81;21450;-40
2022/10/01 09:09:23;;;;;;;18.02;4.22;;;;;;;22.94;90.88;100849.07;1749976;81;20968;-40
2022/10/01 09:12:00;;;;;;;9.28;4.20;;;;;;;23.02;90.27;100849.04;1749798;81;20975;-40
2022/10/01 09:15:11;;;;;;;12.70;3.90;;;;;;;23.08;88.42;100849.95;1749793;81;21462;-40
2022/10/01 09:18:15;;;;;;;9.43;3.12;;;;;;;23.06;87.59;100851.84;1736043;82;20908;-40
2022/10/01 09:20:47;;;;;;;13.65;3.75;;;;;;;23.00;87.84;100847.84;1749632;81;21526;-40
2022/10/01 09:23:31;;;;;;;10.58;3.80;;;;;;;22.91;87.99;100842.67;1749169;82;21135;-38
2022/10/01 09:25:58;;;;;;;19.70;3.72;;;;;;;22.91;87.55;100837.40;1749863;81;20932;-40
2022/10/01 09:28:32;;;;;;;7.30;3.40;;;;;;;22.90;88.45;100844.94;1749954;82;20940;-40
2022/10/01 09:31:20;;;;;;;10.95;3.83;;;;;;;22.89;86.96;100839.30;1749589;82;21003;-39
2022/10/01 09:34:04;;;;;;;7.85;3.50;;;;;;;22.87;87.37;100831.09;1750008;82;21035;-40
2022/10/01 09:36:57;;;;;;;8.95;3.90;;;;;;;22.83;87.50;100843.63;1750050;81;21490;-40
2022/10/01 09:39:29;;;;;;;8.30;3.70;;;;;;;22.78;87.07;100833.38;1749702;82;20952;-40
2022/10/01 09:41:55;;;;;;;7.12;3.45;;;;;;;22.70;86.68;100828.22;1750060;82;21012;-40
2022/10/01 09:44:28;;;;;;;8.13;4.05;;;;;;;22.67;87.71;100835.39;1750025;82;20905;-40
2022/10/01 09:46:55;;;;;;;7.15;3.30;;;;;;;22.78;84.72;100831.20;1749923;82;20909;-40
2022/10/01 09:49:35;;;;;;;7.08;4.03;;;;;;;22.85;85.32;100832.98;1749999;82;21151;-40
2022/10/01 09:52:33;;;;;;;11.03;3.72;;;;;;;22.96;86.81;100828.70;1749933;82;20951;-40
2022/10/01 09:55:20;;;;;;;13.05;3.62;;;;;;;23.28;86.57;100834.63;1749886;82;21355;-40
2022/10/01 09:58:11;;;;;;;10.60;4.08;;;;;;;23.57;82.82;100836.66;1745204;82;20866;-40
2022/10/01 10:00:38;;;;;;;9.93;4.12;;;;;;;23.61;82.23;100830.67;1750401;82;20865;-40
2022/10/01 10:03:04;;;;;;;6.95;3.20;;;;;;;23.85;83.48;100837.88;1749961;82;21771;-40
2022/10/01 10:05:48;;;;;;;7.33;3.25;;;;;;;24.04;81.38;100838.33;1722346;82;20976;-40
2022/10/01 10:08:27;;;;;;;15.45;3.92;;;;;;;24.23;82.19;100837.88;1749700;82;20948;-40
2022/10/01 10:11:04;;;;;;;9.88;3.35;;;;;;;24.43;79.33;100825.55;1750000;80;21019;-40
2022/10/01 10:13:39;;;;;;;7.25;3.58;;;;;;;24.57;78.88;100832.00;1749477;82;20945;-40
2022/10/01 10:16:25;;;;;;;11.45;3.30;;;;;;;24.59;76.33;100835.38;1750130;82;21100;-40
2022/10/01 10:18:57;;;;;;;7.08;3.55;;;;;;;24.52;75.42;100828.84;1749756;81;20904;-40
2022/10/01 10:21:34;;;;;;;8.08;3.70;;;;;;;24.69;77.52;100826.30;1749034;82;21549;-40
2022/10/01 10:24:08;;;;;;;6.55;3.12;;;;;;;24.86;77.67;100823.77;1749705;82;20984;-40
2022/10/01 10:26:37;;;;;;;7.45;3.55;;;;;;;24.93;73.97;100830.33;1747965;82;21502;-40
2022/10/01 10:29:06;;;;;;;12.10;3.83;;;;;;;24.74;73.88;100822.00;1749806;82;21068;-40
2022/10/01 10:31:42;;;;;;;5.90;3.47;;;;;;;24.67;73.99;100815.84;1750050;81;20972;-40
2022/10/01 10:34:35;;;;;;;10.70;3.50;;;;;;;24.56;74.07;100817.08;1749780;82;20936;-40
2022/10/01 10:37:05;;;;;;;11.83;3.30;;;;;;;24.64;75.28;100805.95;1749746;82;20992;-40
2022/10/01 10:39:38;;;;;;;6.45;3.90;;;;;;;24.81;74.40;100806.06;1749783;82;20971;-40
2022/10/01 10:42:04;;;;;;;7.67;3.62;;;;;;;24.92;73.99;100795.55;1750161;82;21104;-40
2022/10/01 10:44:37;;;;;;;7.28;3.90;;;;;;;25.15;74.91;100801.40;1749814;82;20944;-40
2022/10/01 10:47:12;;;;;;;9.10;3.65;;;;;;;25.32;73.27;100797.47;1749879;82;20936;-41
2022/10/01 10:49:49;;;;;;;4.25;3.33;;;;;;;25.22;71.82;100797.31;1750001;82;21483;-40
2022/10/01 10:52:31;;;;;;;5.35;3.15;;;;;;;25.15;73.56;100797.42;1749078;82;20925;-40
2022/10/01 10:54:59;;;;;;;7.95;3.02;;;;;;;25.28;72.56;100797.34;1747899;82;21261;-40
2022/10/01 10:57:29;;;;;;;10.20;3.33;;;;;;;25.31;73.23;100790.02;1749795;82;20917;-40
2022/10/01 11:00:01;;;;;;;7.65;3.35;;;;;;;25.34;72.97;100796.41;1749885;82;21510;-40
2022/10/01 11:02:30;;;;;;;8.53;3.45;;;;;;;25.34;72.68;100784.95;1749781;82;21474;-40
2022/10/01 11:05:01;;;;;;;13.68;3.08;;;;;;;25.29;72.45;100787.11;1750026;81;20935;-40
2022/10/01 11:07:27;;;;;;;10.90;3.85;;;;;;;25.28;74.38;100785.42;1749224;82;21154;-40
2022/10/01 11:10:24;;;;;;;10.18;3.60;;;;;;;25.29;73.26;100780.48;1749742;81;20916;-40
2022/10/01 11:13:17;;;;;;;10.10;3.40;;;;;;;25.35;72.97;100782.67;1750282;82;21050;-40
2022/10/01 11:16:08;;;;;;;11.38;3.35;;;;;;;25.22;73.17;100778.31;1749889;81;20905;-40
2022/10/01 11:19:00;;;;;;;7.42;3.30;;;;;;;25.32;73.45;100773.17;1748611;81;21470;-40
2022/10/01 11:21:57;;;;;;;12.07;3.40;;;;;;;25.59;73.57;100771.18;1735152;82;21379;-40
2022/10/01 11:24:55;;;;;;;9.35;3.58;;;;;;;25.89;72.17;100765.30;1735852;82;20956;-40
2022/10/01 11:27:39;;;;;;;5.03;3.33;;;;;;;26.08;70.68;100767.83;1735713;82;20991;-40
2022/10/01 11:30:27;;;;;;;3.87;3.37;;;;;;;26.18;70.63;100769.30;1735764;82;20968;-40
2022/10/01 11:33:09;;;;;;;6.37;3.37;;;;;;;26.18;67.54;100771.95;1735343;82;21519;-40
2022/10/01 11:35:51;;;;;;;8.43;3.58;;;;;;;25.96;66.79;100766.50;1736484;82;21219;-40
2022/10/01 11:38:38;;;;;;;5.78;3.25;;;;;;;25.72;67.48;100761.80;1735739;82;20922;-40